• Join FlightAware (Why Join?)
  • Login
  • US Flag 
06:34PM EDT


 

Airport Tracker/Info


-or-


 

Live Flight TrackerFlight Track Log ✈ EJA941 ✈ 24-Aug-2013 ✈ KLAX - KASE

Flight Track Log - Related Links

Times and Time Zones

All times are in EDT time to prevent confusion due to time zone crossing. See the EJA941 flight status page for this flight to view local times or setup timezone preferences in your user account.

Time Position Orientation Groundspeed Altitude Reporting Facility
EDT Latitude Longitude Course Direction KTS MPH feet Rate Location/Type
01:44PM 33.9322 -118.4544 249° West 241 277 2,300  Level Los Angeles Center
01:45PM 33.9069 -118.5322 249° West 250 288 5,700 3,180 Climbing Los Angeles Center
01:46PM 33.8533 -118.5022 155° Southeast 242 278 9,000 2,520 Climbing Los Angeles Center
01:47PM 33.8864 -118.4436 56° Northeast 263 303 11,000 2,160 Climbing Los Angeles Center
01:48PM 33.9681 -118.3769 34° Northeast 316 364 13,500 1,860 Climbing Los Angeles Center
01:49PM 34.0206 -118.2781 57° Northeast 343 395 14,900 1,500 Climbing Los Angeles Center
01:50PM 34.0822 -118.1756 54° Northeast 370 426 16,700 1,740 Climbing Los Angeles Center
01:51PM 34.1536 -118.0756 49° Northeast 387 445 18,500 1,740 Climbing Los Angeles Center
01:52PM 34.2242 -117.9719 51° Northeast 397 457 20,400 1,500 Climbing Los Angeles Center
01:53PM 34.2831 -117.8872 50° Northeast 406 467 21,600 1,560 Climbing Los Angeles Center
01:54PM 34.3725 -117.7544 51° Northeast 421 484 23,700 1,740 Climbing Los Angeles Center
01:55PM 34.4567 -117.6319 50° Northeast 441 507 25,300 1,560 Climbing Los Angeles Center
01:56PM 34.5364 -117.5136 51° Northeast 453 521 27,000 1,740 Climbing Los Angeles Center
01:57PM 34.6350 -117.3664 51° Northeast 469 540 29,000 1,740 Climbing Los Angeles Center
01:58PM 34.7186 -117.2408 51° Northeast 479 551 30,700 1,560 Climbing Los Angeles Center
01:59PM 34.8036 -117.1128 51° Northeast 488 562 32,300 1,440 Climbing Los Angeles Center
02:00PM 34.8911 -116.9817 51° Northeast 500 575 33,700 1,500 Climbing Los Angeles Center
02:01PM 34.9986 -116.8189 51° Northeast 512 589 35,500 1,680 Climbing Los Angeles Center
02:02PM 35.0914 -116.6806 51° Northeast 521 600 37,300 1,680 Climbing Los Angeles Center
02:04PM 35.1822 -116.5436 51° Northeast 523 602 39,000 780 Climbing Los Angeles Center
02:05PM 35.2758 -116.4058 50° Northeast 526 605 39,000  Level Los Angeles Center
02:06PM 35.3936 -116.2750 42° Northeast 565 650 39,000  Level Los Angeles Center
02:07PM 35.5106 -116.1433 42° Northeast 571 657 39,000  Level Los Angeles Center
02:08PM 35.6550 -115.9869 41° Northeast 577 664 39,000  Level Los Angeles Center
02:09PM 35.7503 -115.8825 42° Northeast 575 662 39,000  Level Los Angeles Center
02:10PM 35.9056 -115.7097 42° Northeast 570 656 39,000  Level Los Angeles Center
02:11PM 36.0228 -115.5797 42° Northeast 570 656 39,000  Level Los Angeles Center
02:12PM 36.1294 -115.4381 47° Northeast 573 659 39,000  Level Los Angeles Center
02:13PM 36.2156 -115.2781 56° Northeast 572 658 39,000  Level Los Angeles Center
02:14PM 36.2992 -115.1139 58° Northeast 571 657 39,000  Level Los Angeles Center
02:15PM 36.3994 -114.9183 57° Northeast 566 651 39,000  Level Los Angeles Center
02:16PM 36.5008 -114.7194 58° Northeast 569 655 39,000  Level Los Angeles Center
02:17PM 36.5853 -114.5525 58° Northeast 572 658 39,000  Level Los Angeles Center
02:18PM 36.6694 -114.3856 58° Northeast 572 658 39,000  Level Los Angeles Center
02:19PM 36.7492 -114.2092 61° Northeast 566 651 39,000  Level Los Angeles Center
02:20PM 36.8217 -114.0008 66° East 563 648 39,000  Level Los Angeles Center
02:21PM 36.8719 -113.8517 67° East 564 649 39,000  Level Los Angeles Center
02:22PM 36.9439 -113.6367 67° East 562 647 39,000  Level Los Angeles Center
02:23PM 37.0236 -113.4664 60° Northeast 571 657 39,000  Level Los Angeles Center
02:24PM 37.1178 -113.3069 53° Northeast 574 661 39,000  Level Los Angeles Center
02:25PM 37.2111 -113.1447 54° Northeast 577 664 39,000  Level Los Angeles Center
02:26PM 37.3228 -112.9492 54° Northeast 579 666 39,000  Level Los Angeles Center
02:28PM 37.4153 -112.7869 54° Northeast 581 669 39,000  Level Los Angeles Center
02:29PM 37.5072 -112.6247 54° Northeast 585 673 39,000  Level Los Angeles Center
02:30PM 37.5997 -112.4622 54° Northeast 581 669 39,000  Level Los Angeles Center
02:31PM 37.7083 -112.2650 55° Northeast 576 663 39,000  Level Los Angeles Center
02:32PM 37.8042 -112.0578 60° Northeast 572 658 39,000  Level Salt Lake Center
02:33PM 37.8844 -111.8836 60° Northeast 574 661 39,000  Level Salt Lake Center
02:34PM 37.9644 -111.7100 60° Northeast 574 661 39,000  Level Salt Lake Center
02:35PM 38.0442 -111.5344 60° Northeast 576 663 39,000  Level Salt Lake Center
02:36PM 38.1242 -111.3589 60° Northeast 576 663 39,000  Level Salt Lake Center
02:37PM 38.2033 -111.1819 60° Northeast 577 664 39,000  Level Salt Lake Center
02:38PM 38.2983 -110.9706 60° Northeast 576 663 39,000  Level Salt Lake Center
02:39PM 38.3753 -110.7986 60° Northeast 577 664 39,000  Level Salt Lake Center
02:40PM 38.4464 -110.6250 62° Northeast 577 664 39,000  Level Salt Lake Center
02:41PM 38.5169 -110.4131 67° East 581 669 39,000  Level Salt Lake Center
02:42PM 38.5789 -110.2336 66° East 580 667 39,000  Level Salt Lake Center
02:43PM 38.6208 -110.0122 76° East 574 661 39,000  Level Salt Lake Center
02:44PM 38.6564 -109.8231 76° East 574 661 39,000 -660 Level Salt Lake Center
02:45PM 38.6967 -109.6083 76° East 560 644 37,700 -1,320 Descending Salt Lake Center
02:46PM 38.7300 -109.4247 77° East 556 640 36,300 -1,320 Descending Salt Lake Center
02:47PM 38.7697 -109.2106 77° East 556 640 35,100 -660 Descending Salt Lake Center
02:48PM 38.8031 -109.0214 77° East 568 654 35,000 -60 Descending Salt Lake Center
02:49PM 38.8422 -108.8056 77° East 562 647 35,000 -300 Level Salt Lake Center
02:50PM 38.8753 -108.6197 77° East 561 646 34,400 -1,200 Descending Salt Lake Center
02:52PM 38.9178 -108.3714 78° East 556 640 32,400 -1,560 Descending Denver Center
02:53PM 38.9514 -108.1886 77° East 551 634 31,000 -1,260 Descending Denver Center
02:54PM 38.9883 -107.9761 77° East 550 633 29,600 -1,380 Descending Denver Center
02:55PM 39.0258 -107.7633 77° East 549 632 27,900 -1,620 Descending Denver Center
02:56PM 39.0611 -107.5547 78° East 539 620 26,300 -1,560 Descending Denver Center
02:57PM 39.0908 -107.3758 78° East 537 618 24,800 -2,280 Descending Denver Center
02:58PM 39.1692 -107.2103 59° Northeast 490 564 21,700 -2,880 Descending Denver Center
02:59PM 39.2508 -107.1122 43° Northeast 456 525 18,900 -2,700 Descending Denver Center
03:00PM 39.3433 -107.0883 11° North 379 436 16,200 -1,500 Descending Denver Center
03:01PM 39.4283 -107.1222 343° North 295 339 15,900 -360 Descending Denver Center
03:02PM 39.4733 -107.0733 40° Northeast 248 285 15,500 -1,200 Descending Denver Center
03:03PM 39.4753 -107.0147 88° East 217 250 13,500 -1,140 Descending Denver Center
03:04PM 39.4250 -106.9625 141° Southeast 196 226 13,200 -420 Descending Denver Center
03:05PM 39.3786 -106.9442 163° South 195 224 12,700 -1,260 Descending Denver Center
03:06PM 39.3289 -106.9200 159° South 166 191 10,700 -1,860 Descending Denver Center
03:07PM 39.2878 -106.8992 159° South 162 186 8,900 -1,200 Descending Denver Center
03:08PM 39.2406 -106.8778 161° South 161 185 8,300 -600 Descending Denver Center